Time;durP1;ratioP1;P1;durP2;ratioP2;P2;SDS_P1;SDS_P2;PMS_P1;PMS_P2;Temp;Humidity;BMP_temperature;BMP_pressure;BME280_temperature;BME280_humidity;BME280_pressure;Samples;Min_cycle;Max_cycle;Signal;HPM_P1;HPM_P2
2022/03/30 00:02:17;;;;;;;29.55;11.73;;;6.30;99.90;;;;;;5077089;28;20048;-84
2022/03/30 00:04:43;;;;;;;30.13;10.90;;;6.20;99.90;;;;;;5076488;28;20044;-85
2022/03/30 00:07:08;;;;;;;26.15;11.13;;;6.30;99.90;;;;;;5077430;28;20483;-85
2022/03/30 00:09:34;;;;;;;25.50;11.88;;;6.30;99.90;;;;;;5077381;28;20098;-85
2022/03/30 00:12:00;;;;;;;24.65;11.68;;;6.30;99.90;;;;;;5077328;28;20043;-84
2022/03/30 00:14:25;;;;;;;27.58;13.32;;;6.30;99.90;;;;;;5077371;28;20086;-84
2022/03/30 00:16:51;;;;;;;25.38;11.73;;;6.30;99.90;;;;;;5078890;28;20127;-84
2022/03/30 00:19:31;;;;;;;32.08;13.45;;;6.30;99.90;;;;;;5097471;28;20048;-84
2022/03/30 00:21:57;;;;;;;23.38;11.48;;;6.30;99.90;;;;;;5078965;28;20429;-84
2022/03/30 00:24:23;;;;;;;27.05;11.50;;;6.30;99.90;;;;;;5097368;28;20483;-85
2022/03/30 00:26:49;;;;;;;9.57;3.67;;;6.40;99.90;;;;;;5079387;28;20418;-85
2022/03/30 00:29:15;;;;;;;8.73;2.90;;;6.50;99.90;;;;;;5097290;28;20391;-85
2022/03/30 00:31:40;;;;;;;6.82;1.80;;;6.60;99.90;;;;;;5079221;28;20048;-85
2022/03/30 00:34:06;;;;;;;7.00;2.80;;;6.80;99.90;;;;;;5097397;28;20056;-84
2022/03/30 00:36:32;;;;;;;5.93;2.00;;;6.80;99.90;;;;;;5097053;28;20596;-85
2022/03/30 00:38:58;;;;;;;6.45;2.00;;;6.80;99.90;;;;;;5096961;28;20505;-84
2022/03/30 00:41:27;;;;;;;7.88;2.55;;;6.90;99.90;;;;;;5096998;28;20052;-84
2022/03/30 00:43:52;;;;;;;7.50;2.22;;;6.80;99.90;;;;;;5078875;28;20047;-84
2022/03/30 00:46:19;;;;;;;6.03;2.22;;;6.80;99.90;;;;;;5096677;28;20043;-84
2022/03/30 00:48:45;;;;;;;4.07;1.65;;;6.80;99.90;;;;;;5096719;28;20402;-84
2022/03/30 00:51:11;;;;;;;7.65;1.90;;;6.80;99.90;;;;;;5096662;28;20471;-82
2022/03/30 00:53:37;;;;;;;8.38;1.85;;;6.80;99.90;;;;;;5078504;28;20368;-83
2022/03/30 00:56:04;;;;;;;8.43;2.17;;;6.80;99.90;;;;;;5096445;28;20501;-83
2022/03/30 00:58:31;;;;;;;5.82;1.40;;;6.80;99.90;;;;;;5096657;28;20437;-83
2022/03/30 01:00:58;;;;;;;6.85;1.30;;;6.80;99.90;;;;;;5078591;28;20044;-82
2022/03/30 01:03:24;;;;;;;2.75;0.82;;;6.80;99.90;;;;;;5076917;28;20054;-83
2022/03/30 01:05:49;;;;;;;6.78;1.70;;;6.80;99.90;;;;;;5078572;28;20130;-82
2022/03/30 01:08:15;;;;;;;3.83;1.25;;;6.80;99.90;;;;;;5078470;28;20449;-83
2022/03/30 01:10:41;;;;;;;4.28;1.20;;;6.80;99.90;;;;;;5096591;28;20055;-83
2022/03/30 01:13:07;;;;;;;4.00;1.13;;;6.80;99.90;;;;;;5096410;28;20040;-83
2022/03/30 01:15:33;;;;;;;5.13;1.20;;;6.80;99.90;;;;;;5097007;28;20059;-83
2022/03/30 01:18:06;;;;;;;1.30;0.60;;;6.70;99.90;;;;;;5095815;28;20491;-83
2022/03/30 01:20:32;;;;;;;2.47;0.40;;;6.60;99.90;;;;;;5096567;28;20055;-84
2022/03/30 01:22:58;;;;;;;5.90;1.05;;;6.70;99.90;;;;;;5078055;28;20047;-83
2022/03/30 01:25:23;;;;;;;2.45;0.75;;;6.60;99.90;;;;;;5096209;28;20189;-83
2022/03/30 01:27:49;;;;;;;2.63;0.50;;;6.60;99.90;;;;;;5077943;28;20055;-84
2022/03/30 01:33:05;;;;;;;1.65;0.40;;;6.50;99.90;;;;;;5077967;28;20105;-83
2022/03/30 01:35:31;;;;;;;2.47;0.40;;;6.40;99.90;;;;;;5096103;28;20101;-83
2022/03/30 01:37:57;;;;;;;2.13;0.80;;;6.40;99.90;;;;;;5077926;28;20399;-83
2022/03/30 01:40:22;;;;;;;1.25;0.35;;;6.40;99.90;;;;;;5095912;28;20501;-83
2022/03/30 01:42:48;;;;;;;2.45;0.50;;;6.40;99.90;;;;;;5077594;28;20032;-83
2022/03/30 01:45:16;;;;;;;1.92;0.30;;;6.40;99.90;;;;;;5096028;28;20530;-83
2022/03/30 01:47:57;;;;;;;1.67;0.60;;;6.40;99.90;;;;;;5078123;28;20475;-84
2022/03/30 01:50:25;;;;;;;2.88;0.40;;;6.50;99.90;;;;;;5095596;28;20044;-83
2022/03/30 01:52:51;;;;;;;1.58;0.60;;;6.40;99.90;;;;;;5095701;28;20047;-83
2022/03/30 01:55:17;;;;;;;3.47;0.30;;;6.40;99.90;;;;;;5095426;28;20471;-83
2022/03/30 01:57:44;;;;;;;1.27;0.68;;;6.40;99.90;;;;;;5077409;28;20135;-83
2022/03/30 02:00:12;;;;;;;0.52;0.17;;;6.30;99.90;;;;;;5095656;28;20123;-83
2022/03/30 02:02:39;;;;;;;1.88;0.10;;;6.20;99.90;;;;;;5095587;28;20052;-83
2022/03/30 02:05:06;;;;;;;1.13;0.10;;;6.30;99.90;;;;;;5077457;28;20402;-86
2022/03/30 02:07:32;;;;;;;0.10;0.10;;;6.30;99.90;;;;;;5077283;28;20050;-90
2022/03/30 02:09:57;;;;;;;1.10;0.10;;;6.30;99.90;;;;;;5077268;28;20040;-90
2022/03/30 02:12:23;;;;;;;1.02;0.13;;;6.20;99.90;;;;;;5095365;28;20051;-91
2022/03/30 02:14:51;;;;;;;0.75;0.10;;;6.10;99.90;;;;;;5076688;28;20048;-88
2022/03/30 02:17:18;;;;;;;0.43;0.10;;;6.10;99.90;;;;;;5094847;28;20063;-89
2022/03/30 02:19:58;;;;;;;0.52;0.17;;;6.10;99.90;;;;;;5095276;28;20099;-90
2022/03/30 02:22:24;;;;;;;0.55;0.10;;;6.00;99.90;;;;;;5095050;28;20168;-90
2022/03/30 02:24:50;;;;;;;1.95;0.20;;;6.00;99.90;;;;;;5095170;28;20115;-89
2022/03/30 02:27:18;;;;;;;1.85;0.17;;;6.00;99.90;;;;;;5077073;28;20119;-91
2022/03/30 02:29:48;;;;;;;1.02;0.20;;;6.00;99.90;;;;;;5094946;28;20411;-92
2022/03/30 02:32:14;;;;;;;0.65;0.20;;;6.00;99.90;;;;;;5077036;28;20178;-93
2022/03/30 02:34:39;;;;;;;1.42;0.10;;;6.00;99.90;;;;;;5077112;28;20126;-93
2022/03/30 02:37:05;;;;;;;1.20;0.10;;;6.00;99.90;;;;;;5094984;28;20040;-92
2022/03/30 02:39:31;;;;;;;1.00;0.20;;;5.90;99.90;;;;;;5095093;28;20136;-93
2022/03/30 02:41:57;;;;;;;2.05;0.30;;;5.90;99.90;;;;;;5076827;28;20043;-92
2022/03/30 02:44:22;;;;;;;0.30;0.10;;;5.80;99.90;;;;;;5077165;28;20051;-93
2022/03/30 02:46:48;;;;;;;0.50;0.30;;;5.80;99.90;;;;;;5094619;28;20043;-92
2022/03/30 02:49:14;;;;;;;0.55;0.20;;;5.80;99.90;;;;;;5094817;28;20055;-91
2022/03/30 02:51:40;;;;;;;1.70;0.22;;;5.80;99.90;;;;;;5094516;28;20044;-90
2022/03/30 02:54:06;;;;;;;1.00;0.32;;;5.80;99.90;;;;;;5094749;28;20043;-91
2022/03/30 02:56:33;;;;;;;1.63;0.30;;;5.70;99.90;;;;;;5076790;28;20036;-92
2022/03/30 02:58:58;;;;;;;3.53;1.13;;;5.70;99.90;;;;;;5076653;28;20040;-91
2022/03/30 03:01:24;;;;;;;1.30;0.40;;;5.70;99.90;;;;;;5076635;28;20446;-91
2022/03/30 03:03:50;;;;;;;1.67;0.40;;;5.70;99.90;;;;;;5076687;28;20500;-91
2022/03/30 03:06:15;;;;;;;1.70;0.38;;;5.60;99.90;;;;;;5094579;28;20437;-91
2022/03/30 03:08:41;;;;;;;3.88;0.52;;;5.60;99.90;;;;;;5076321;28;20044;-90
2022/03/30 03:11:07;;;;;;;2.95;0.90;;;5.60;99.90;;;;;;5094625;28;20051;-91
2022/03/30 03:13:32;;;;;;;3.22;0.40;;;5.60;99.90;;;;;;5094351;28;20114;-91
2022/03/30 03:15:58;;;;;;;1.58;0.57;;;5.60;99.90;;;;;;5076278;28;20044;-92
2022/03/30 03:18:30;;;;;;;2.30;0.47;;;5.60;99.90;;;;;;5093777;28;20048;-91
2022/03/30 03:20:56;;;;;;;2.60;0.50;;;5.60;99.90;;;;;;5076205;28;20052;-91
2022/03/30 03:23:22;;;;;;;1.95;0.57;;;5.50;99.90;;;;;;5076130;28;20055;-91
2022/03/30 03:25:47;;;;;;;3.15;0.80;;;5.50;99.90;;;;;;5093392;28;20040;-91
2022/03/30 03:28:14;;;;;;;2.85;1.33;;;5.40;99.90;;;;;;5094770;28;20048;-91
2022/03/30 03:30:41;;;;;;;0.82;0.50;;;5.40;99.90;;;;;;5093895;28;20047;-90
2022/03/30 03:33:08;;;;;;;1.48;0.40;;;5.40;99.90;;;;;;5094072;28;20044;-91
2022/03/30 03:35:34;;;;;;;4.25;0.95;;;5.50;99.90;;;;;;5094079;28;20074;-91
2022/03/30 03:38:01;;;;;;;2.20;0.55;;;5.50;99.90;;;;;;5075996;28;20052;-91
2022/03/30 03:40:27;;;;;;;2.60;0.50;;;5.50;99.90;;;;;;5094078;28;20048;-91
2022/03/30 03:42:53;;;;;;;2.03;1.27;;;5.60;99.90;;;;;;5075859;28;20048;-91
2022/03/30 03:45:19;;;;;;;2.75;0.57;;;5.60;99.90;;;;;;5093956;28;20086;-90
2022/03/30 03:47:47;;;;;;;2.17;0.52;;;5.60;99.90;;;;;;5093573;28;20478;-89
2022/03/30 03:50:13;;;;;;;4.60;1.13;;;5.60;99.90;;;;;;5093599;28;20486;-89
2022/03/30 03:52:39;;;;;;;3.55;0.60;;;5.60;99.90;;;;;;5093817;28;20096;-90
2022/03/30 03:55:05;;;;;;;3.85;0.50;;;5.60;99.90;;;;;;5093882;28;20044;-90
2022/03/30 03:57:32;;;;;;;2.20;0.85;;;5.60;99.90;;;;;;5076036;28;20109;-90
2022/03/30 03:59:58;;;;;;;2.22;0.63;;;5.60;99.90;;;;;;5093824;28;20048;-91
2022/03/30 04:02:23;;;;;;;6.82;0.65;;;5.60;99.90;;;;;;5093492;28;20632;-90
2022/03/30 04:04:49;;;;;;;1.35;0.40;;;5.60;99.90;;;;;;5093699;28;20076;-90
2022/03/30 04:07:15;;;;;;;2.60;0.73;;;5.60;99.90;;;;;;5093730;28;20048;-91
2022/03/30 04:09:40;;;;;;;2.80;0.40;;;5.60;99.90;;;;;;5093621;28;20040;-90
2022/03/30 04:12:07;;;;;;;4.20;0.50;;;5.60;99.90;;;;;;5093624;28;20047;-91
2022/03/30 04:14:33;;;;;;;3.85;0.85;;;5.60;99.90;;;;;;5093510;28;20043;-89
2022/03/30 04:16:59;;;;;;;2.80;0.60;;;5.60;99.90;;;;;;5076462;28;20040;-92
2022/03/30 04:19:25;;;;;;;2.50;0.80;;;5.70;99.90;;;;;;5093507;28;20056;-91
2022/03/30 04:21:57;;;;;;;4.25;0.70;;;5.70;99.90;;;;;;5093624;28;20044;-93
2022/03/30 04:24:22;;;;;;;2.63;0.50;;;5.70;99.90;;;;;;5093661;28;20371;-92
2022/03/30 04:26:48;;;;;;;2.67;0.65;;;5.70;99.90;;;;;;5093812;28;20093;-92
2022/03/30 04:29:14;;;;;;;3.83;0.95;;;5.80;99.90;;;;;;5075379;28;20036;-91
2022/03/30 04:31:39;;;;;;;1.73;0.60;;;5.80;99.90;;;;;;5075698;28;20048;-89
2022/03/30 04:34:05;;;;;;;2.92;0.63;;;5.70;99.90;;;;;;5093200;28;20433;-89
2022/03/30 04:36:31;;;;;;;5.20;0.90;;;5.70;99.90;;;;;;5093480;28;20070;-90
2022/03/30 04:38:56;;;;;;;5.40;0.90;;;5.70;99.90;;;;;;5096975;28;20142;-90
2022/03/30 04:41:23;;;;;;;3.92;0.50;;;5.70;99.90;;;;;;5079191;28;20551;-91
2022/03/30 04:43:49;;;;;;;1.65;0.60;;;5.70;99.90;;;;;;5097033;28;20502;-91
2022/03/30 04:46:14;;;;;;;3.97;0.63;;;5.70;99.90;;;;;;5078859;28;20079;-91
2022/03/30 04:48:40;;;;;;;1.98;0.40;;;5.70;99.90;;;;;;5097146;28;20040;-92
2022/03/30 04:51:06;;;;;;;3.78;0.60;;;5.70;99.90;;;;;;5097105;28;20032;-92
2022/03/30 04:53:32;;;;;;;4.80;0.50;;;5.70;99.90;;;;;;5096967;28;20062;-93
2022/03/30 04:55:57;;;;;;;1.17;0.65;;;5.70;99.90;;;;;;5097048;28;20075;-91
2022/03/30 04:58:23;;;;;;;3.58;0.77;;;5.70;99.90;;;;;;5095741;28;20508;-91
2022/03/30 05:00:49;;;;;;;4.50;0.60;;;5.60;99.90;;;;;;5096560;28;20502;-90
2022/03/30 05:03:15;;;;;;;3.53;0.43;;;5.60;99.90;;;;;;5096756;28;20080;-90
2022/03/30 05:05:41;;;;;;;3.08;0.77;;;5.60;99.90;;;;;;5096716;28;20067;-90
2022/03/30 05:08:07;;;;;;;6.88;0.68;;;5.60;99.90;;;;;;5096664;28;20093;-90
2022/03/30 05:10:33;;;;;;;4.70;0.60;;;5.60;99.90;;;;;;5096633;28;20086;-90
2022/03/30 05:13:00;;;;;;;2.58;0.50;;;5.60;99.90;;;;;;5096374;28;20036;-90
2022/03/30 05:15:28;;;;;;;5.38;0.60;;;5.60;99.90;;;;;;5077929;28;20079;-90
2022/03/30 05:18:07;;;;;;;3.72;0.55;;;5.50;99.90;;;;;;5095562;28;20055;-90
2022/03/30 05:20:43;;;;;;;2.03;0.60;;;5.60;99.90;;;;;;5095386;28;20075;-91
2022/03/30 05:23:08;;;;;;;4.68;0.80;;;5.60;99.90;;;;;;5095946;28;20040;-90
2022/03/30 05:25:34;;;;;;;1.60;0.50;;;5.50;99.90;;;;;;5096236;28;20039;-89
2022/03/30 05:27:59;;;;;;;3.35;0.50;;;5.50;99.90;;;;;;5096047;28;20048;-89
2022/03/30 05:30:25;;;;;;;3.53;0.88;;;5.50;99.90;;;;;;5096232;28;20119;-90
2022/03/30 05:32:51;;;;;;;4.25;0.80;;;5.50;99.90;;;;;;5096221;28;20048;-91
2022/03/30 05:35:16;;;;;;;3.85;1.05;;;5.50;99.90;;;;;;5096085;28;20040;-91
2022/03/30 05:37:48;;;;;;;2.20;0.80;;;5.50;99.90;;;;;;5077881;28;20138;-90
2022/03/30 05:40:16;;;;;;;3.90;0.87;;;5.50;99.90;;;;;;5077856;28;20055;-90
2022/03/30 05:42:42;;;;;;;2.58;0.70;;;5.50;99.90;;;;;;5095850;28;20052;-89
2022/03/30 05:45:08;;;;;;;3.22;0.82;;;5.60;99.90;;;;;;5095929;28;20040;-89
2022/03/30 05:47:34;;;;;;;3.08;0.77;;;5.50;99.90;;;;;;5095876;28;20040;-89
2022/03/30 05:50:00;;;;;;;1.73;0.60;;;5.50;99.90;;;;;;5077043;28;20105;-89
2022/03/30 05:52:26;;;;;;;5.00;0.80;;;5.50;99.90;;;;;;5077503;28;20055;-89
2022/03/30 05:54:52;;;;;;;5.80;0.70;;;5.50;99.90;;;;;;5095401;28;20407;-88
2022/03/30 05:57:21;;;;;;;3.78;0.70;;;5.50;99.90;;;;;;5077321;28;20040;-90
2022/03/30 05:59:46;;;;;;;4.03;0.60;;;5.50;99.90;;;;;;5077551;28;20074;-89
2022/03/30 06:02:13;;;;;;;3.67;0.50;;;5.60;99.90;;;;;;5095546;28;20394;-90
2022/03/30 06:04:41;;;;;;;3.70;1.85;;;5.60;99.90;;;;;;5077405;28;20056;-91
2022/03/30 06:07:07;;;;;;;4.20;0.52;;;5.60;99.90;;;;;;5077317;28;20055;-90
2022/03/30 06:09:33;;;;;;;2.47;0.50;;;5.60;99.90;;;;;;5077315;28;20040;-90
2022/03/30 06:12:03;;;;;;;2.17;0.43;;;5.60;99.90;;;;;;5077346;28;20048;-89
2022/03/30 06:14:30;;;;;;;1.85;0.50;;;5.70;99.90;;;;;;5077150;28;20047;-88
2022/03/30 06:16:56;;;;;;;2.72;0.30;;;5.70;99.90;;;;;;5077104;28;20060;-89
2022/03/30 06:19:36;;;;;;;4.88;0.70;;;5.70;99.90;;;;;;5073141;28;20067;-89
2022/03/30 06:22:08;;;;;;;3.03;0.45;;;5.80;99.90;;;;;;5066483;28;20048;-88
2022/03/30 06:24:39;;;;;;;5.20;1.15;;;5.80;99.90;;;;;;5074089;28;20360;-88
2022/03/30 06:27:06;;;;;;;3.53;0.60;;;5.80;99.90;;;;;;5073430;28;20044;-89
2022/03/30 06:29:32;;;;;;;2.35;0.95;;;5.80;99.90;;;;;;5073469;28;20084;-88
2022/03/30 06:31:58;;;;;;;2.83;0.40;;;5.80;99.90;;;;;;5074505;28;20048;-89
2022/03/30 06:34:31;;;;;;;5.60;0.65;;;5.80;99.90;;;;;;5074581;28;20069;-93
2022/03/30 06:36:56;;;;;;;3.22;0.57;;;5.80;99.90;;;;;;5074544;28;20040;-88
2022/03/30 06:39:22;;;;;;;4.32;0.60;;;5.90;99.90;;;;;;5074621;28;20379;-87
2022/03/30 06:41:48;;;;;;;1.98;0.40;;;5.80;99.90;;;;;;5073426;28;20059;-90
2022/03/30 06:44:15;;;;;;;3.95;0.50;;;5.80;99.90;;;;;;5073300;28;20043;-88
2022/03/30 06:46:41;;;;;;;2.97;0.60;;;5.90;99.90;;;;;;5076066;28;20056;-89
2022/03/30 06:49:09;;;;;;;1.08;0.40;;;6.00;99.90;;;;;;5073268;28;20049;-88
2022/03/30 06:51:36;;;;;;;1.67;0.55;;;6.00;99.90;;;;;;5074224;28;20123;-86
2022/03/30 06:54:02;;;;;;;4.15;0.75;;;6.00;99.90;;;;;;5074227;28;20088;-87
2022/03/30 06:56:27;;;;;;;3.42;0.63;;;6.00;99.90;;;;;;5073094;28;20044;-88
2022/03/30 06:58:53;;;;;;;1.30;0.40;;;6.10;99.90;;;;;;5073235;28;20391;-86
2022/03/30 07:01:19;;;;;;;6.10;0.50;;;6.20;99.90;;;;;;5072591;28;20395;-84
2022/03/30 07:03:44;;;;;;;4.43;0.80;;;6.20;99.90;;;;;;5072454;28;20067;-83
2022/03/30 07:06:10;;;;;;;1.65;0.40;;;6.30;99.90;;;;;;5073912;28;20123;-85
2022/03/30 07:11:21;;;;;;;4.40;1.45;;;6.20;99.90;;;;;;5072299;28;20079;-83
2022/03/30 07:13:46;;;;;;;3.60;0.45;;;6.30;99.90;;;;;;5072346;28;20056;-85
2022/03/30 07:16:13;;;;;;;6.03;0.57;;;6.30;99.90;;;;;;5072607;28;20047;-87
2022/03/30 07:18:44;;;;;;;3.95;0.73;;;6.20;99.90;;;;;;5083844;28;20058;-92
2022/03/30 07:21:23;;;;;;;2.50;0.68;;;6.00;99.90;;;;;;5093639;28;20047;-89
2022/03/30 07:23:48;;;;;;;1.37;0.90;;;6.10;99.90;;;;;;5093813;28;20058;-89
2022/03/30 07:26:14;;;;;;;4.50;0.70;;;6.00;99.90;;;;;;5076031;28;20044;-89
2022/03/30 07:28:40;;;;;;;4.03;1.00;;;6.00;99.90;;;;;;5094039;28;20044;-88
2022/03/30 07:31:05;;;;;;;1.60;0.50;;;6.00;99.90;;;;;;5075542;28;20047;-88
2022/03/30 07:33:33;;;;;;;5.82;0.40;;;6.10;99.90;;;;;;5093672;28;20123;-87
2022/03/30 07:35:59;;;;;;;4.13;0.60;;;6.10;99.90;;;;;;5093538;28;20417;-90
2022/03/30 07:38:24;;;;;;;2.88;0.35;;;6.20;99.90;;;;;;5093630;28;20051;-89
2022/03/30 07:40:50;;;;;;;3.50;1.85;;;6.20;99.90;;;;;;5093476;28;20425;-86
2022/03/30 07:43:17;;;;;;;2.28;0.40;;;6.30;99.90;;;;;;5075302;28;20109;-89
2022/03/30 07:45:43;;;;;;;6.60;0.95;;;6.40;99.90;;;;;;5075331;28;20048;-89
2022/03/30 07:48:10;;;;;;;1.17;0.28;;;6.40;99.90;;;;;;5076514;28;20051;-90
2022/03/30 07:50:36;;;;;;;4.05;0.55;;;6.30;99.90;;;;;;5075184;28;20465;-90
2022/03/30 07:53:02;;;;;;;2.88;1.05;;;6.30;99.90;;;;;;5081138;28;20106;-87
2022/03/30 07:55:28;;;;;;;1.70;0.30;;;6.30;99.90;;;;;;5093682;28;20043;-91
2022/03/30 07:57:56;;;;;;;2.40;0.40;;;6.40;99.90;;;;;;5094107;28;20039;-89
2022/03/30 08:00:23;;;;;;;2.65;0.52;;;6.50;99.90;;;;;;5087027;28;20115;-87
2022/03/30 08:02:49;;;;;;;2.90;0.50;;;6.50;99.90;;;;;;5052347;28;20099;-88
2022/03/30 08:05:16;;;;;;;2.30;0.70;;;6.60;99.90;;;;;;5073393;28;20040;-88
2022/03/30 08:07:44;;;;;;;3.00;0.60;;;6.60;99.90;;;;;;5072515;28;20095;-87
2022/03/30 08:10:11;;;;;;;2.25;0.30;;;6.60;99.90;;;;;;5057826;28;20044;-87
2022/03/30 08:12:38;;;;;;;0.98;0.20;;;6.50;99.90;;;;;;5094933;28;20044;-90
2022/03/30 08:15:04;;;;;;;3.25;0.28;;;6.40;99.90;;;;;;5090483;28;20068;-91
2022/03/30 08:17:30;;;;;;;4.50;0.50;;;6.40;99.90;;;;;;5060470;28;20056;-88
2022/03/30 08:19:57;;;;;;;2.05;0.38;;;6.50;99.90;;;;;;5096580;28;20052;-90
2022/03/30 08:22:28;;;;;;;3.08;0.68;;;6.50;99.90;;;;;;5095903;28;20085;-89
2022/03/30 08:25:00;;;;;;;2.80;0.47;;;6.40;99.90;;;;;;5095153;28;20051;-89
2022/03/30 08:27:31;;;;;;;1.63;0.47;;;6.50;99.90;;;;;;5086856;28;20059;-89
2022/03/30 08:29:57;;;;;;;1.00;0.25;;;6.50;99.90;;;;;;5093500;28;20050;-87
2022/03/30 08:32:23;;;;;;;3.28;0.40;;;6.70;99.90;;;;;;5087488;28;20044;-90
2022/03/30 08:34:52;;;;;;;2.92;0.40;;;6.80;99.90;;;;;;5096507;28;20046;-87
2022/03/30 08:37:19;;;;;;;4.95;0.60;;;7.00;99.90;;;;;;5096775;28;20119;-88
2022/03/30 08:39:45;;;;;;;5.53;0.50;;;6.90;99.90;;;;;;5093657;28;20044;-87
2022/03/30 08:42:13;;;;;;;3.38;0.70;;;6.90;99.90;;;;;;5092372;28;20568;-87
2022/03/30 08:44:41;;;;;;;2.05;0.40;;;7.10;99.90;;;;;;5095243;28;20047;-86
2022/03/30 08:47:08;;;;;;;3.90;0.32;;;6.80;99.90;;;;;;5096686;28;20202;-87
2022/03/30 08:49:35;;;;;;;2.97;0.80;;;6.90;99.90;;;;;;5096147;28;20055;-86
2022/03/30 08:52:03;;;;;;;4.38;0.65;;;6.90;99.90;;;;;;5096471;28;20498;-86
2022/03/30 08:54:30;;;;;;;4.22;0.40;;;6.90;99.90;;;;;;5088715;28;20506;-87
2022/03/30 08:56:56;;;;;;;1.77;0.38;;;7.10;99.90;;;;;;5096610;28;20039;-86
2022/03/30 08:59:23;;;;;;;1.85;0.43;;;7.20;99.90;;;;;;5095979;28;20387;-87
2022/03/30 09:01:50;;;;;;;1.52;0.20;;;7.10;99.90;;;;;;5078000;28;20570;-88
2022/03/30 09:04:18;;;;;;;3.00;0.32;;;7.20;99.90;;;;;;5095694;28;20135;-85
2022/03/30 09:06:46;;;;;;;3.67;0.35;;;7.10;99.90;;;;;;5096405;28;20036;-85
2022/03/30 09:09:14;;;;;;;2.03;0.55;;;7.20;99.90;;;;;;5096437;28;20082;-86
2022/03/30 09:11:56;;;;;;;4.68;0.70;;;7.20;99.90;;;;;;5096337;28;20040;-87
2022/03/30 09:14:26;;;;;;;3.13;0.50;;;7.30;99.90;;;;;;5096219;28;20128;-86
2022/03/30 09:16:57;;;;;;;4.45;1.42;;;7.40;99.90;;;;;;5096189;28;20044;-85
2022/03/30 09:19:23;;;;;;;3.85;0.77;;;7.50;99.90;;;;;;5095773;28;20086;-85
2022/03/30 09:22:09;;;;;;;2.20;0.38;;;7.60;99.90;;;;;;5095903;28;20052;-85
2022/03/30 09:24:38;;;;;;;2.60;0.40;;;7.90;99.90;;;;;;5094917;28;20097;-86
2022/03/30 09:27:06;;;;;;;6.78;1.65;;;8.00;99.90;;;;;;5096467;28;20044;-88
2022/03/30 09:29:36;;;;;;;3.97;0.60;;;7.90;99.90;;;;;;5095988;28;20048;-87
2022/03/30 09:32:06;;;;;;;4.22;0.75;;;8.00;99.90;;;;;;5077490;28;20124;-88
2022/03/30 09:34:46;;;;;;;2.63;0.43;;;8.00;99.90;;;;;;5077718;28;20048;-88
2022/03/30 09:37:12;;;;;;;4.90;0.68;;;8.00;99.90;;;;;;5095629;28;20043;-87
2022/03/30 09:39:39;;;;;;;1.80;0.40;;;8.20;99.90;;;;;;5095719;28;20054;-85
2022/03/30 09:42:08;;;;;;;2.88;0.40;;;8.10;99.90;;;;;;5095642;28;20032;-84
2022/03/30 09:45:03;;;;;;;3.75;0.50;;;8.40;99.90;;;;;;5077408;28;20048;-86
2022/03/30 09:47:38;;;;;;;2.33;0.30;;;8.30;99.90;;;;;;5082186;28;20098;-86
2022/03/30 09:50:07;;;;;;;3.58;0.55;;;8.40;99.90;;;;;;5077519;28;20048;-86
2022/03/30 09:52:33;;;;;;;1.25;0.52;;;8.60;99.90;;;;;;5095697;28;20047;-87
2022/03/30 09:55:04;;;;;;;3.17;0.65;;;8.70;99.90;;;;;;5077376;28;20048;-84
2022/03/30 09:57:41;;;;;;;3.55;0.55;;;8.40;99.90;;;;;;5095513;28;20047;-88
2022/03/30 10:00:15;;;;;;;2.75;0.40;;;8.30;99.90;;;;;;5095146;28;20040;-87
2022/03/30 10:02:52;;;;;;;3.83;0.28;;;8.10;99.90;;;;;;5095236;28;20052;-84
2022/03/30 10:05:21;;;;;;;6.28;0.40;;;8.40;99.90;;;;;;5095057;28;20466;-84
2022/03/30 10:07:47;;;;;;;4.07;0.35;;;8.40;99.90;;;;;;5095215;28;20047;-85
2022/03/30 10:10:16;;;;;;;5.60;0.60;;;8.30;99.90;;;;;;5077080;28;20471;-85
2022/03/30 10:12:42;;;;;;;3.80;0.60;;;8.30;99.90;;;;;;5095226;28;20071;-85
2022/03/30 10:15:09;;;;;;;2.15;0.40;;;8.50;99.90;;;;;;5094930;28;20043;-86
2022/03/30 10:17:36;;;;;;;2.97;0.63;;;8.50;99.90;;;;;;5077053;28;20048;-84
2022/03/30 10:20:03;;;;;;;1.83;0.40;;;8.50;99.90;;;;;;5095179;28;20040;-85
2022/03/30 10:22:38;;;;;;;2.15;0.30;;;8.60;99.90;;;;;;5076819;28;20048;-85
2022/03/30 10:25:43;;;;;;;3.15;0.63;;;8.50;99.90;;;;;;5077032;28;20048;-84
2022/03/30 10:28:25;;;;;;;3.60;0.40;;;8.20;99.90;;;;;;5094977;28;20071;-85
2022/03/30 10:30:53;;;;;;;2.80;0.47;;;8.40;99.90;;;;;;5095105;28;20130;-85
2022/03/30 10:33:33;;;;;;;3.22;0.52;;;8.40;99.90;;;;;;5094927;28;20048;-84
2022/03/30 10:36:23;;;;;;;4.55;0.52;;;8.50;99.90;;;;;;5094625;28;20059;-84
2022/03/30 10:39:08;;;;;;;2.13;0.35;;;8.60;99.90;;;;;;5094875;28;20115;-85
2022/03/30 10:41:48;;;;;;;2.13;0.45;;;8.30;99.90;;;;;;5094639;28;20044;-85
2022/03/30 10:44:57;;;;;;;1.20;0.28;;;8.40;99.90;;;;;;5094712;28;20040;-84
2022/03/30 10:47:27;;;;;;;1.42;0.30;;;8.40;99.90;;;;;;5032324;28;20077;-85
2022/03/30 10:50:05;;;;;;;3.60;0.50;;;8.70;99.90;;;;;;5032139;28;20037;-85
2022/03/30 10:52:37;;;;;;;5.38;1.02;;;8.80;99.90;;;;;;5069928;28;20399;-85
2022/03/30 10:55:12;;;;;;;1.77;0.40;;;8.90;99.90;;;;;;5076142;28;20067;-85
2022/03/30 10:58:01;;;;;;;3.05;0.30;;;9.00;99.90;;;;;;5094449;28;20386;-82
2022/03/30 11:00:34;;;;;;;3.72;0.60;;;8.60;99.90;;;;;;5094377;28;20079;-83
2022/03/30 11:03:12;;;;;;;4.65;0.57;;;8.80;99.90;;;;;;5094083;28;20482;-82
2022/03/30 11:05:38;;;;;;;3.15;0.35;;;8.90;99.90;;;;;;5094009;28;20501;-83
2022/03/30 11:08:06;;;;;;;3.00;0.57;;;9.20;99.90;;;;;;5094110;28;20402;-82
2022/03/30 11:10:48;;;;;;;2.88;0.50;;;9.10;99.90;;;;;;5075847;28;20040;-82
2022/03/30 11:13:23;;;;;;;2.83;0.43;;;8.80;99.90;;;;;;5093885;28;20044;-83
2022/03/30 11:16:00;;;;;;;4.63;0.43;;;9.00;99.90;;;;;;5094624;28;20509;-84
2022/03/30 11:18:27;;;;;;;1.67;0.40;;;9.10;99.90;;;;;;5093936;28;20060;-87
2022/03/30 11:21:08;;;;;;;0.65;0.25;;;9.00;99.90;;;;;;5075867;28;20058;-89
2022/03/30 11:24:03;;;;;;;2.95;0.80;;;8.80;99.90;;;;;;5075578;28;20056;-87
2022/03/30 11:26:50;;;;;;;3.83;0.40;;;8.60;99.90;;;;;;5094020;28;20119;-86
2022/03/30 11:29:40;;;;;;;3.75;1.17;;;9.00;99.90;;;;;;5094171;28;20119;-90
2022/03/30 11:32:24;;;;;;;2.35;0.50;;;9.30;99.90;;;;;;5094046;28;20083;-88
2022/03/30 11:34:53;;;;;;;2.85;0.32;;;9.10;99.90;;;;;;5075636;28;20398;-86
2022/03/30 11:37:26;;;;;;;5.35;0.98;;;9.10;99.90;;;;;;5075909;28;20375;-87
2022/03/30 11:39:59;;;;;;;;;;;9.00;99.00;;;;;;5076504;28;20540;-92
2022/03/30 11:42:26;;;;;;;2.13;0.50;;;9.00;99.90;;;;;;5076092;28;19967;-90
2022/03/30 11:47:36;;;;;;;1.98;0.25;;;9.40;99.90;;;;;;5074751;28;20097;-90
2022/03/30 11:50:03;;;;;;;2.97;0.45;;;9.50;99.90;;;;;;5075482;28;20047;-88
2022/03/30 11:52:29;;;;;;;3.67;0.60;;;9.60;99.90;;;;;;5075618;28;20372;-87
2022/03/30 11:54:55;;;;;;;3.30;1.08;;;9.70;99.90;;;;;;5093663;28;20536;-87
2022/03/30 11:57:22;;;;;;;4.90;0.50;;;9.70;99.90;;;;;;5075681;28;20051;-88
2022/03/30 11:59:57;;;;;;;3.60;0.55;;;9.70;99.90;;;;;;5093434;28;20083;-85
2022/03/30 12:02:28;;;;;;;4.72;0.63;;;9.90;98.90;;;;;;5093335;28;20429;-90
2022/03/30 12:04:55;;;;;;;3.85;0.60;;;9.70;99.90;;;;;;5075338;28;20051;-90
2022/03/30 12:07:20;;;;;;;3.03;0.50;;;9.80;99.90;;;;;;5093554;28;20093;-89
2022/03/30 12:09:47;;;;;;;5.18;0.70;;;9.70;99.90;;;;;;5075181;28;20035;-85
2022/03/30 12:12:27;;;;;;;2.17;0.30;;;9.90;99.90;;;;;;5093688;28;20044;-88
2022/03/30 12:15:00;;;;;;;5.35;0.47;;;9.40;99.90;;;;;;5093547;28;20036;-86
2022/03/30 12:17:27;;;;;;;3.30;0.45;;;9.70;99.90;;;;;;5093504;28;20040;-84
2022/03/30 12:19:54;;;;;;;3.38;0.43;;;9.60;99.90;;;;;;5075000;28;20131;-83
2022/03/30 12:22:21;;;;;;;4.55;0.70;;;9.40;99.90;;;;;;5093296;28;20040;-84
2022/03/30 12:24:46;;;;;;;7.78;0.57;;;9.80;99.90;;;;;;5075345;28;20055;-84
2022/03/30 12:27:13;;;;;;;3.63;0.77;;;9.40;99.20;;;;;;5093356;28;20028;-84
2022/03/30 12:29:42;;;;;;;2.35;0.40;;;9.80;99.90;;;;;;5075164;28;20469;-84
2022/03/30 12:32:15;;;;;;;3.50;0.60;;;9.30;97.10;;;;;;5093062;28;20082;-84
2022/03/30 12:34:46;;;;;;;3.80;0.28;;;9.40;99.90;;;;;;5075373;28;20048;-84
2022/03/30 12:37:21;;;;;;;4.80;0.60;;;9.00;98.80;;;;;;5075340;28;20115;-84
2022/03/30 12:39:47;;;;;;;3.30;0.35;;;8.60;97.50;;;;;;5074794;28;20052;-84
2022/03/30 12:42:25;;;;;;;4.50;0.57;;;8.80;99.90;;;;;;5075315;28;20042;-84
2022/03/30 12:44:56;;;;;;;3.35;0.50;;;9.10;99.90;;;;;;5075124;28;20476;-82
2022/03/30 12:47:28;;;;;;;3.70;0.70;;;8.90;98.50;;;;;;5075346;28;20394;-83
2022/03/30 12:49:55;;;;;;;3.50;0.80;;;8.70;98.50;;;;;;5093154;28;20039;-84
2022/03/30 12:52:22;;;;;;;1.98;0.32;;;8.70;99.50;;;;;;5075156;28;20055;-84
2022/03/30 12:54:48;;;;;;;4.15;0.30;;;8.90;99.90;;;;;;5074773;28;20483;-84
2022/03/30 13:10:38;;;;;;;3.60;0.60;;;8.70;99.90;;;;;;5811532;22;20040;-84
2022/03/30 13:13:06;;;;;;;3.30;0.67;;;8.80;99.90;;;;;;5036320;28;20053;-86
2022/03/30 13:15:34;;;;;;;1.38;0.20;;;8.70;97.00;;;;;;5038411;28;20135;-83
2022/03/30 13:18:03;;;;;;;3.35;0.63;;;8.50;99.70;;;;;;5038373;28;20053;-82
2022/03/30 13:20:33;;;;;;;5.80;0.50;;;8.60;99.90;;;;;;5037981;28;20454;-84
2022/03/30 13:23:10;;;;;;;2.40;0.50;;;8.80;99.90;;;;;;5038323;28;20049;-83
2022/03/30 13:25:41;;;;;;;2.67;0.57;;;8.50;98.20;;;;;;5055655;28;20577;-84
2022/03/30 13:28:07;;;;;;;3.03;0.98;;;8.60;99.90;;;;;;5038519;28;20045;-84